createdAt,value
2022-08-01T00:00:31.528Z,24.70
2022-08-01T00:03:17.158Z,24.70
2022-08-01T00:06:03.168Z,24.60
2022-08-01T00:08:49.015Z,24.60
2022-08-01T00:11:34.737Z,24.60
2022-08-01T00:14:20.439Z,24.60
2022-08-01T00:17:17.850Z,24.50
2022-08-01T00:20:06.080Z,24.50
2022-08-01T00:22:51.941Z,24.50
2022-08-01T00:25:37.556Z,24.50
2022-08-01T00:28:23.164Z,24.50
2022-08-01T00:31:09.054Z,24.40
2022-08-01T00:33:55.029Z,24.40
2022-08-01T00:36:41.469Z,24.40
2022-08-01T00:39:27.228Z,24.40
2022-08-01T00:42:13.942Z,24.40
2022-08-01T00:44:59.780Z,24.40
2022-08-01T00:47:45.663Z,24.40
2022-08-01T00:50:31.358Z,24.40
2022-08-01T00:53:18.731Z,24.40
2022-08-01T00:56:05.325Z,24.40
2022-08-01T00:58:51.281Z,24.30
2022-08-01T01:01:39.390Z,24.20
2022-08-01T01:04:25.847Z,24.20
2022-08-01T01:07:20.152Z,24.30
2022-08-01T01:10:41.528Z,24.20
2022-08-01T01:13:50.453Z,24.10
2022-08-01T01:16:41.932Z,23.90
2022-08-01T01:19:31.800Z,24.10
2022-08-01T01:22:53.018Z,24.00
2022-08-01T01:25:38.741Z,23.90
2022-08-01T01:28:45.196Z,23.90
2022-08-01T01:31:36.280Z,23.90
2022-08-01T01:34:23.557Z,23.90
2022-08-01T01:37:16.929Z,23.80
2022-08-01T01:40:05.231Z,23.80
2022-08-01T01:42:52.810Z,23.80
2022-08-01T01:45:39.977Z,23.80
2022-08-01T01:48:27.193Z,23.80
2022-08-01T01:51:14.249Z,23.80
2022-08-01T01:54:02.074Z,23.80
2022-08-01T01:56:51.273Z,23.50
2022-08-01T01:59:40.486Z,23.80
2022-08-01T02:02:27.735Z,23.80
2022-08-01T02:05:14.553Z,23.80
2022-08-01T02:08:00.495Z,23.70
2022-08-01T02:11:07.425Z,23.80
2022-08-01T02:14:02.609Z,23.70
2022-08-01T02:16:50.796Z,23.70
2022-08-01T02:19:38.686Z,23.70
2022-08-01T02:22:33.257Z,23.70
2022-08-01T02:25:37.336Z,23.70
2022-08-01T02:28:33.798Z,23.70
2022-08-01T02:31:22.739Z,23.70
2022-08-01T02:34:13.036Z,23.70
2022-08-01T02:37:01.348Z,23.70
2022-08-01T02:39:51.882Z,23.70
2022-08-01T02:42:40.023Z,23.70
2022-08-01T02:45:29.669Z,23.70
2022-08-01T02:48:18.122Z,23.60
2022-08-01T02:51:05.438Z,23.60
2022-08-01T02:53:53.020Z,23.50
2022-08-01T02:56:41.688Z,23.50
2022-08-01T02:59:28.885Z,23.40
2022-08-01T03:02:16.702Z,23.30
2022-08-01T03:05:03.778Z,23.20
2022-08-01T03:07:50.106Z,23.10
2022-08-01T03:10:39.223Z,23.20
2022-08-01T03:13:26.976Z,23.20
2022-08-01T03:16:14.411Z,23.20
2022-08-01T03:19:02.873Z,23.20
2022-08-01T03:21:50.400Z,23.20
2022-08-01T03:24:40.513Z,23.00
2022-08-01T03:27:27.221Z,23.10
2022-08-01T03:30:14.073Z,23.10
2022-08-01T03:33:00.889Z,23.00
2022-08-01T03:35:56.657Z,23.00
2022-08-01T03:38:44.453Z,23.00
2022-08-01T03:41:38.654Z,23.10
2022-08-01T03:44:27.972Z,22.80
2022-08-01T03:47:15.590Z,22.80
2022-08-01T03:50:03.988Z,22.70
2022-08-01T03:52:52.129Z,22.70
2022-08-01T03:55:40.232Z,22.70
2022-08-01T03:58:28.068Z,22.60
2022-08-01T04:01:15.638Z,22.60
2022-08-01T04:04:02.519Z,22.60
2022-08-01T04:06:51.433Z,22.60
2022-08-01T04:09:37.254Z,22.90
2022-08-01T04:12:23.634Z,22.20
2022-08-01T04:15:09.565Z,22.60
2022-08-01T04:17:55.360Z,22.60
2022-08-01T04:20:41.609Z,22.60
2022-08-01T04:23:32.580Z,22.60
2022-08-01T04:26:19.412Z,22.60
2022-08-01T04:29:07.561Z,22.60
2022-08-01T04:31:55.497Z,22.60
2022-08-01T04:34:47.142Z,22.50
2022-08-01T04:37:33.412Z,22.70
2022-08-01T04:40:22.772Z,22.70
2022-08-01T04:43:09.133Z,22.70
2022-08-01T04:45:56.351Z,22.80
2022-08-01T04:48:42.178Z,22.90
2022-08-01T04:51:28.132Z,23.00
2022-08-01T04:54:13.754Z,23.00
2022-08-01T04:57:03.478Z,23.10
2022-08-01T04:59:50.536Z,23.20
2022-08-01T05:02:36.593Z,23.30
2022-08-01T05:05:22.021Z,23.60
2022-08-01T05:08:07.783Z,23.60
2022-08-01T05:10:53.802Z,24.10
2022-08-01T05:13:39.504Z,24.00
2022-08-01T05:16:25.643Z,24.20
2022-08-01T05:19:11.088Z,24.30
2022-08-01T05:22:00.193Z,24.50
2022-08-01T05:24:47.260Z,24.60
2022-08-01T05:27:39.276Z,25.30
2022-08-01T05:30:24.710Z,25.90
2022-08-01T05:35:56.367Z,26.80
2022-08-01T05:38:42.010Z,27.00
2022-08-01T05:41:27.714Z,27.60
2022-08-01T05:44:13.375Z,27.50
2022-08-01T05:46:59.046Z,27.90
2022-08-01T05:49:45.875Z,27.90
2022-08-01T05:52:31.880Z,27.90
2022-08-01T05:55:17.783Z,27.00
2022-08-01T05:58:03.567Z,27.80
2022-08-01T06:06:25.198Z,28.50
2022-08-01T06:11:57.617Z,29.00
2022-08-01T06:14:43.292Z,28.60
2022-08-01T06:17:28.684Z,28.30
2022-08-01T06:20:14.555Z,28.40
2022-08-01T06:23:02.478Z,28.50
2022-08-01T06:25:48.530Z,28.60
2022-08-01T06:28:34.303Z,28.80
2022-08-01T06:31:19.813Z,29.10
2022-08-01T06:34:05.829Z,29.20
2022-08-01T06:36:51.509Z,29.30
2022-08-01T06:39:37.233Z,29.50
2022-08-01T06:42:23.093Z,29.70
2022-08-01T06:45:11.068Z,29.80
2022-08-01T06:47:56.741Z,29.90
2022-08-01T06:50:42.815Z,30.20
2022-08-01T06:53:28.502Z,30.40
2022-08-01T06:56:14.208Z,30.70
2022-08-01T06:59:01.954Z,30.70
2022-08-01T07:01:47.987Z,31.10
2022-08-01T07:04:33.577Z,31.10
2022-08-01T07:07:19.366Z,31.20
2022-08-01T07:10:05.367Z,31.10
2022-08-01T07:12:51.354Z,31.00
2022-08-01T07:15:36.909Z,31.30
2022-08-01T07:18:22.548Z,30.80
2022-08-01T07:21:38.166Z,31.60
2022-08-01T07:24:20.838Z,31.90
2022-08-01T07:27:23.000Z,32.20
2022-08-01T07:30:10.196Z,32.40
2022-08-01T07:32:55.870Z,32.50
2022-08-01T07:35:41.705Z,32.40
2022-08-01T07:38:27.186Z,32.70
2022-08-01T07:41:13.524Z,32.40
2022-08-01T07:44:04.338Z,33.00
2022-08-01T07:46:50.809Z,32.90
2022-08-01T07:49:40.258Z,32.60
2022-08-01T07:52:26.318Z,33.40
2022-08-01T07:55:16.698Z,33.20
2022-08-01T07:58:02.781Z,33.40
2022-08-01T08:00:48.759Z,33.40
2022-08-01T08:03:34.319Z,33.50
2022-08-01T08:09:06.343Z,34.20
2022-08-01T08:11:51.813Z,33.80
2022-08-01T08:17:24.066Z,33.70
2022-08-01T08:20:10.086Z,34.60
2022-08-01T08:22:56.628Z,34.40
2022-08-01T08:25:42.517Z,34.50
2022-08-01T08:28:28.469Z,34.10
2022-08-01T08:31:25.556Z,34.40
2022-08-01T08:34:20.900Z,35.00
2022-08-01T08:37:08.334Z,34.30
2022-08-01T08:39:55.542Z,35.00
2022-08-01T08:42:42.037Z,34.30
2022-08-01T08:48:34.775Z,34.60
2022-08-01T08:51:22.073Z,34.40
2022-08-01T08:54:11.482Z,34.70
2022-08-01T08:56:57.494Z,35.00
2022-08-01T08:59:46.392Z,35.00
2022-08-01T09:08:09.833Z,35.10
2022-08-01T09:10:55.344Z,35.20
2022-08-01T09:16:32.976Z,35.60
2022-08-01T09:19:40.625Z,34.60
2022-08-01T09:22:26.530Z,34.10
2022-08-01T09:25:12.209Z,34.00
2022-08-01T09:28:07.088Z,33.70
2022-08-01T09:33:55.382Z,33.80
2022-08-01T09:37:07.783Z,34.20
2022-08-01T09:39:58.458Z,34.00
2022-08-01T09:45:41.902Z,33.60
2022-08-01T09:48:33.585Z,33.60
2022-08-01T09:51:58.812Z,34.30
2022-08-01T09:54:39.328Z,33.90
2022-08-01T09:57:26.063Z,34.30
2022-08-01T10:00:43.739Z,33.20
2022-08-01T10:03:28.219Z,33.10
2022-08-01T10:06:24.950Z,32.70
2022-08-01T10:09:13.387Z,32.80
2022-08-01T10:12:00.916Z,32.50
2022-08-01T10:14:50.681Z,33.50
2022-08-01T10:17:50.604Z,33.50
2022-08-01T10:20:37.791Z,33.50
2022-08-01T10:23:39.883Z,33.50
2022-08-01T10:26:28.682Z,33.10
2022-08-01T10:29:46.792Z,33.20
2022-08-01T10:32:25.375Z,33.30
2022-08-01T10:38:27.134Z,33.50
2022-08-01T10:41:16.374Z,33.40
2022-08-01T10:44:03.696Z,34.00
2022-08-01T10:46:53.790Z,33.50
2022-08-01T10:50:02.845Z,33.50
2022-08-01T10:53:23.041Z,33.80
2022-08-01T10:56:12.734Z,33.10
2022-08-01T10:59:06.577Z,33.30
2022-08-01T11:01:59.658Z,33.70
2022-08-01T11:05:01.775Z,34.00
2022-08-01T11:07:53.895Z,33.90
2022-08-01T11:10:43.960Z,33.70
2022-08-01T11:13:59.111Z,33.60
2022-08-01T11:16:45.392Z,33.70
2022-08-01T11:20:04.723Z,33.40
2022-08-01T11:23:03.253Z,33.60
2022-08-01T11:26:05.964Z,33.30
2022-08-01T11:29:22.099Z,33.50
2022-08-01T11:32:27.947Z,33.50
2022-08-01T11:38:29.450Z,33.70
2022-08-01T11:41:37.417Z,34.00
2022-08-01T11:44:30.125Z,33.30
2022-08-01T11:50:07.612Z,33.70
2022-08-01T11:53:05.865Z,33.50
2022-08-01T11:55:53.806Z,33.70
2022-08-01T11:58:40.289Z,32.80
2022-08-01T12:01:29.324Z,32.90
2022-08-01T12:04:15.338Z,33.00
2022-08-01T12:07:16.467Z,33.60
2022-08-01T12:12:57.799Z,33.10
2022-08-01T12:15:44.409Z,33.30
2022-08-01T12:18:42.438Z,33.40
2022-08-01T12:21:28.248Z,33.80
2022-08-01T12:24:23.228Z,33.60
2022-08-01T12:27:10.804Z,33.60
2022-08-01T12:29:58.357Z,33.80
2022-08-01T12:32:48.918Z,33.90
2022-08-01T12:38:27.890Z,34.40
2022-08-01T12:44:00.454Z,32.90
2022-08-01T12:46:46.622Z,34.20
2022-08-01T12:49:39.146Z,34.10
2022-08-01T12:52:26.842Z,34.00
2022-08-01T12:55:18.849Z,34.80
2022-08-01T12:58:16.300Z,33.60
2022-08-01T13:01:08.718Z,34.60
2022-08-01T13:04:04.900Z,34.90
2022-08-01T13:06:54.990Z,34.20
2022-08-01T13:09:53.101Z,34.20
2022-08-01T13:12:40.154Z,34.60
2022-08-01T13:15:31.933Z,34.40
2022-08-01T13:18:32.477Z,33.90
2022-08-01T13:21:24.454Z,35.00
2022-08-01T13:27:04.800Z,34.40
2022-08-01T13:29:53.938Z,34.80
2022-08-01T13:32:40.422Z,34.50
2022-08-01T13:35:26.594Z,34.60
2022-08-01T13:40:59.607Z,34.00
2022-08-01T13:43:58.515Z,34.40
2022-08-01T13:46:49.682Z,33.90
2022-08-01T13:49:38.062Z,33.60
2022-08-01T13:52:26.426Z,34.30
2022-08-01T13:55:12.354Z,35.20
2022-08-01T14:00:44.908Z,34.40
2022-08-01T14:03:33.453Z,34.40
2022-08-01T14:06:23.327Z,34.60
2022-08-01T14:14:53.767Z,34.20
2022-08-01T14:17:39.670Z,35.10
2022-08-01T14:20:34.629Z,35.20
2022-08-01T14:23:20.411Z,34.50
2022-08-01T14:26:11.693Z,35.10
2022-08-01T14:31:44.185Z,34.20
2022-08-01T14:34:30.439Z,34.10
2022-08-01T14:37:16.366Z,34.10
2022-08-01T14:40:09.818Z,33.90
2022-08-01T14:42:56.673Z,33.90
2022-08-01T14:45:42.556Z,33.50
2022-08-01T14:51:16.333Z,34.30
2022-08-01T14:56:50.162Z,35.00
2022-08-01T14:59:36.104Z,34.90
2022-08-01T15:02:22.866Z,34.30
2022-08-01T15:05:09.361Z,35.20
2022-08-01T15:10:41.173Z,34.80
2022-08-01T15:13:26.827Z,35.10
2022-08-01T15:18:58.231Z,34.00
2022-08-01T15:21:43.992Z,34.40
2022-08-01T15:24:29.898Z,35.00
2022-08-01T15:27:16.187Z,34.40
2022-08-01T15:30:01.797Z,33.90
2022-08-01T15:41:08.923Z,34.70
2022-08-01T15:43:55.923Z,34.40
2022-08-01T15:49:28.169Z,34.00
2022-08-01T15:52:21.974Z,34.50
2022-08-01T15:55:09.670Z,33.40
2022-08-01T15:57:55.696Z,34.90
2022-08-01T16:03:27.771Z,33.90
2022-08-01T16:08:59.517Z,33.90
2022-08-01T16:14:37.002Z,34.40
2022-08-01T16:17:22.968Z,33.90
2022-08-01T16:20:09.546Z,33.80
2022-08-01T16:22:55.147Z,34.10
2022-08-01T16:25:40.976Z,33.00
2022-08-01T16:28:27.023Z,33.80
2022-08-01T16:31:22.079Z,33.70
2022-08-01T16:34:13.113Z,33.80
2022-08-01T16:37:01.045Z,33.80
2022-08-01T16:39:47.504Z,33.80
2022-08-01T16:42:33.345Z,34.40
2022-08-01T16:45:21.291Z,33.40
2022-08-01T16:48:06.778Z,34.10
2022-08-01T16:50:57.859Z,34.50
2022-08-01T16:53:43.425Z,33.20
2022-08-01T16:56:29.077Z,33.80
2022-08-01T17:02:02.540Z,32.90
2022-08-01T17:04:48.294Z,33.40
2022-08-01T17:07:34.742Z,33.50
2022-08-01T17:10:20.269Z,33.90
2022-08-01T17:13:07.193Z,33.20
2022-08-01T17:15:55.709Z,33.10
2022-08-01T17:18:41.581Z,33.20
2022-08-01T17:21:27.831Z,33.80
2022-08-01T17:24:16.543Z,33.30
2022-08-01T17:27:02.357Z,33.10
2022-08-01T17:29:48.162Z,33.30
2022-08-01T17:38:09.691Z,33.00
2022-08-01T17:40:55.514Z,33.20
2022-08-01T17:43:41.328Z,32.30
2022-08-01T17:46:27.079Z,32.80
2022-08-01T17:49:12.735Z,33.60
2022-08-01T17:54:44.669Z,33.00
2022-08-01T17:57:30.908Z,33.30
2022-08-01T18:00:16.697Z,32.30
2022-08-01T18:03:02.658Z,32.50
2022-08-01T18:05:54.173Z,33.10
2022-08-01T18:08:42.028Z,33.40
2022-08-01T18:11:28.000Z,32.60
2022-08-01T18:14:14.201Z,32.80
2022-08-01T18:16:59.904Z,32.90
2022-08-01T18:19:46.799Z,32.80
2022-08-01T18:22:33.099Z,32.00
2022-08-01T18:25:20.126Z,32.50
2022-08-01T18:28:16.772Z,32.50
2022-08-01T18:33:58.726Z,31.90
2022-08-01T18:36:44.466Z,32.20
2022-08-01T18:39:31.063Z,31.60
2022-08-01T18:42:18.511Z,31.50
2022-08-01T18:45:04.880Z,31.30
2022-08-01T18:53:23.945Z,31.10
2022-08-01T18:56:12.870Z,31.00
2022-08-01T19:01:44.822Z,31.60
2022-08-01T19:04:30.925Z,30.80
2022-08-01T19:07:33.516Z,30.40
2022-08-01T19:10:23.464Z,31.10
2022-08-01T19:13:09.948Z,30.50
2022-08-01T19:21:27.790Z,29.70
2022-08-01T19:27:12.821Z,30.50
2022-08-01T19:30:01.545Z,30.30
2022-08-01T19:32:49.076Z,30.60
2022-08-01T19:35:35.921Z,30.20
2022-08-01T19:41:07.857Z,29.80
2022-08-01T19:44:01.845Z,29.80
2022-08-01T19:46:47.722Z,29.90
2022-08-01T19:52:26.014Z,30.30
2022-08-01T19:55:12.203Z,29.30
2022-08-01T20:01:14.359Z,29.40
2022-08-01T20:04:03.897Z,29.50
2022-08-01T20:06:50.389Z,29.30
2022-08-01T20:09:36.733Z,29.30
2022-08-01T20:12:23.374Z,29.30
2022-08-01T20:15:09.589Z,29.20
2022-08-01T20:17:58.450Z,29.20
2022-08-01T20:20:48.425Z,29.10
2022-08-01T20:23:39.377Z,29.20
2022-08-01T20:26:27.114Z,28.90
2022-08-01T20:29:15.686Z,28.90
2022-08-01T20:32:02.450Z,29.00
2022-08-01T20:34:48.280Z,28.80
2022-08-01T20:38:03.787Z,28.80
2022-08-01T20:40:47.528Z,28.80
2022-08-01T20:43:34.026Z,28.70
2022-08-01T20:46:23.063Z,28.60
2022-08-01T20:49:12.425Z,28.60
2022-08-01T20:51:58.121Z,28.40
2022-08-01T20:54:43.706Z,28.50
2022-08-01T20:57:31.307Z,28.50
2022-08-01T21:00:20.393Z,28.50
2022-08-01T21:03:12.141Z,28.30
2022-08-01T21:06:08.886Z,28.30
2022-08-01T21:08:58.358Z,28.40
2022-08-01T21:12:03.426Z,28.10
2022-08-01T21:14:57.365Z,28.20
2022-08-01T21:17:57.974Z,28.00
2022-08-01T21:20:52.888Z,28.10
2022-08-01T21:23:52.454Z,28.10
2022-08-01T21:26:39.117Z,28.20
2022-08-01T21:29:25.937Z,28.10
2022-08-01T21:32:15.537Z,28.00
2022-08-01T21:35:03.124Z,28.10
2022-08-01T21:37:52.099Z,28.00
2022-08-01T21:40:38.650Z,28.30
2022-08-01T21:43:24.430Z,28.00
2022-08-01T21:46:11.762Z,27.90
2022-08-01T21:48:58.334Z,28.20
2022-08-01T21:51:51.695Z,27.90
2022-08-01T21:54:53.090Z,27.90
2022-08-01T21:57:57.434Z,27.80
2022-08-01T22:00:51.046Z,27.70
2022-08-01T22:03:46.659Z,27.80
2022-08-01T22:06:34.988Z,27.70
2022-08-01T22:09:21.980Z,27.60
2022-08-01T22:12:08.385Z,27.60
2022-08-01T22:14:55.969Z,27.50
2022-08-01T22:17:42.212Z,27.30
2022-08-01T22:20:28.645Z,27.40
2022-08-01T22:23:14.583Z,27.40
2022-08-01T22:28:46.809Z,27.40
2022-08-01T22:31:37.857Z,27.30
2022-08-01T22:34:27.595Z,27.40
2022-08-01T22:37:15.001Z,27.60
2022-08-01T22:40:04.744Z,27.40
2022-08-01T22:42:59.586Z,27.40
2022-08-01T22:45:51.558Z,27.40
2022-08-01T22:49:02.017Z,27.30
2022-08-01T22:51:54.821Z,27.40
2022-08-01T22:57:53.186Z,27.40
2022-08-01T23:00:41.285Z,27.30
2022-08-01T23:03:33.918Z,27.20
2022-08-01T23:09:06.261Z,27.30
2022-08-01T23:11:53.183Z,27.20
2022-08-01T23:14:39.642Z,27.20
2022-08-01T23:17:29.622Z,27.20
2022-08-01T23:20:16.589Z,27.30
2022-08-01T23:23:04.344Z,27.40
2022-08-01T23:28:36.714Z,27.30
2022-08-01T23:31:25.824Z,27.30
2022-08-01T23:37:15.634Z,27.20
2022-08-01T23:40:01.454Z,27.10
2022-08-01T23:46:02.709Z,27.20
2022-08-01T23:51:25.679Z,27.20
2022-08-01T23:56:59.465Z,27.30
2022-08-01T23:59:53.617Z,27.20
